sensor_id;sensor_type;location;lat;lon;timestamp;temperature;humidity
2855;DHT22;1435;49.472;10.940;2023-03-14T00:01:38;12.10;99.90
2855;DHT22;1435;49.472;10.940;2023-03-14T00:06:39;12.10;99.90
2855;DHT22;1435;49.472;10.940;2023-03-14T00:11:41;11.90;99.90
2855;DHT22;1435;49.472;10.940;2023-03-14T00:16:47;12.00;99.90
2855;DHT22;1435;49.472;10.940;2023-03-14T00:21:48;11.90;99.90
2855;DHT22;1435;49.472;10.940;2023-03-14T00:26:50;11.80;99.90
2855;DHT22;1435;49.472;10.940;2023-03-14T00:31:53;11.80;99.90
2855;DHT22;1435;49.472;10.940;2023-03-14T00:36:55;11.70;99.90
2855;DHT22;1435;49.472;10.940;2023-03-14T00:41:57;11.80;99.90
2855;DHT22;1435;49.472;10.940;2023-03-14T00:47:00;11.80;99.90
2855;DHT22;1435;49.472;10.940;2023-03-14T00:52:02;11.70;99.90
2855;DHT22;1435;49.472;10.940;2023-03-14T00:57:03;11.60;99.90
2855;DHT22;1435;49.472;10.940;2023-03-14T01:02:06;11.40;99.90
2855;DHT22;1435;49.472;10.940;2023-03-14T01:07:08;11.30;99.90
2855;DHT22;1435;49.472;10.940;2023-03-14T01:12:10;11.30;99.90
2855;DHT22;1435;49.472;10.940;2023-03-14T01:17:13;11.30;99.90
2855;DHT22;1435;49.472;10.940;2023-03-14T01:22:15;11.30;99.90
2855;DHT22;1435;49.472;10.940;2023-03-14T01:27:17;11.30;99.90
2855;DHT22;1435;49.472;10.940;2023-03-14T01:32:20;11.20;99.90
2855;DHT22;1435;49.472;10.940;2023-03-14T01:37:22;11.20;99.90
2855;DHT22;1435;49.472;10.940;2023-03-14T01:42:24;11.20;99.90
2855;DHT22;1435;49.472;10.940;2023-03-14T01:47:27;11.10;99.90
2855;DHT22;1435;49.472;10.940;2023-03-14T01:52:33;11.10;99.90
2855;DHT22;1435;49.472;10.940;2023-03-14T01:57:37;11.00;99.90
2855;DHT22;1435;49.472;10.940;2023-03-14T02:02:45;11.10;99.90
2855;DHT22;1435;49.472;10.940;2023-03-14T02:07:50;11.20;99.90
2855;DHT22;1435;49.472;10.940;2023-03-14T02:12:55;11.30;99.90
2855;DHT22;1435;49.472;10.940;2023-03-14T02:17:59;11.40;99.90
2855;DHT22;1435;49.472;10.940;2023-03-14T02:23:03;11.40;99.90
2855;DHT22;1435;49.472;10.940;2023-03-14T02:28:06;11.50;99.90
2855;DHT22;1435;49.472;10.940;2023-03-14T02:33:10;11.50;99.90
2855;DHT22;1435;49.472;10.940;2023-03-14T02:38:17;11.30;99.90
2855;DHT22;1435;49.472;10.940;2023-03-14T02:43:23;11.40;99.90
2855;DHT22;1435;49.472;10.940;2023-03-14T02:48:27;11.50;99.90
2855;DHT22;1435;49.472;10.940;2023-03-14T02:53:31;11.60;99.90
2855;DHT22;1435;49.472;10.940;2023-03-14T02:58:34;11.50;99.90
2855;DHT22;1435;49.472;10.940;2023-03-14T03:03:36;11.50;99.90
2855;DHT22;1435;49.472;10.940;2023-03-14T03:08:38;11.60;99.90
2855;DHT22;1435;49.472;10.940;2023-03-14T03:13:41;11.50;99.90
2855;DHT22;1435;49.472;10.940;2023-03-14T03:18:43;11.40;99.90
2855;DHT22;1435;49.472;10.940;2023-03-14T03:23:44;11.40;99.90
2855;DHT22;1435;49.472;10.940;2023-03-14T03:28:50;11.40;99.90
2855;DHT22;1435;49.472;10.940;2023-03-14T03:33:52;11.40;99.90
2855;DHT22;1435;49.472;10.940;2023-03-14T03:38:53;11.30;99.90
2855;DHT22;1435;49.472;10.940;2023-03-14T03:43:56;11.40;99.90
2855;DHT22;1435;49.472;10.940;2023-03-14T03:49:00;11.40;99.90
2855;DHT22;1435;49.472;10.940;2023-03-14T03:54:01;11.30;99.90
2855;DHT22;1435;49.472;10.940;2023-03-14T03:59:04;11.30;99.90
2855;DHT22;1435;49.472;10.940;2023-03-14T04:04:06;11.40;99.90
2855;DHT22;1435;49.472;10.940;2023-03-14T04:09:08;11.20;99.90
2855;DHT22;1435;49.472;10.940;2023-03-14T04:14:11;11.20;99.90
2855;DHT22;1435;49.472;10.940;2023-03-14T04:19:13;11.20;99.90
2855;DHT22;1435;49.472;10.940;2023-03-14T04:24:14;11.20;99.90
2855;DHT22;1435;49.472;10.940;2023-03-14T04:29:18;11.30;99.90
2855;DHT22;1435;49.472;10.940;2023-03-14T04:34:19;11.20;99.90
2855;DHT22;1435;49.472;10.940;2023-03-14T04:39:21;11.20;99.90
2855;DHT22;1435;49.472;10.940;2023-03-14T04:44:24;11.10;99.90
2855;DHT22;1435;49.472;10.940;2023-03-14T04:49:26;11.10;99.90
2855;DHT22;1435;49.472;10.940;2023-03-14T04:54:28;11.00;99.90
2855;DHT22;1435;49.472;10.940;2023-03-14T04:59:31;11.00;99.90
2855;DHT22;1435;49.472;10.940;2023-03-14T05:04:33;11.00;99.90
2855;DHT22;1435;49.472;10.940;2023-03-14T05:09:34;11.00;99.90
2855;DHT22;1435;49.472;10.940;2023-03-14T05:14:37;11.00;99.90
2855;DHT22;1435;49.472;10.940;2023-03-14T05:19:39;11.00;99.90
2855;DHT22;1435;49.472;10.940;2023-03-14T05:24:41;10.90;99.90
2855;DHT22;1435;49.472;10.940;2023-03-14T05:29:44;10.90;99.90
2855;DHT22;1435;49.472;10.940;2023-03-14T05:34:46;10.90;99.90
2855;DHT22;1435;49.472;10.940;2023-03-14T05:39:47;10.90;99.90
2855;DHT22;1435;49.472;10.940;2023-03-14T05:44:50;10.90;99.90
2855;DHT22;1435;49.472;10.940;2023-03-14T05:49:52;10.90;99.90
2855;DHT22;1435;49.472;10.940;2023-03-14T05:54:54;10.90;99.90
2855;DHT22;1435;49.472;10.940;2023-03-14T05:59:57;10.90;99.90
2855;DHT22;1435;49.472;10.940;2023-03-14T06:04:59;10.80;99.90
2855;DHT22;1435;49.472;10.940;2023-03-14T06:10:01;10.80;99.90
2855;DHT22;1435;49.472;10.940;2023-03-14T06:15:05;10.80;99.90
2855;DHT22;1435;49.472;10.940;2023-03-14T06:20:08;10.80;99.90
2855;DHT22;1435;49.472;10.940;2023-03-14T06:25:09;10.80;99.90
2855;DHT22;1435;49.472;10.940;2023-03-14T06:30:13;10.80;99.90
2855;DHT22;1435;49.472;10.940;2023-03-14T06:35:15;10.80;99.90
2855;DHT22;1435;49.472;10.940;2023-03-14T06:40:17;10.70;99.90
2855;DHT22;1435;49.472;10.940;2023-03-14T06:45:20;10.80;99.90
2855;DHT22;1435;49.472;10.940;2023-03-14T06:50:22;10.80;99.90
2855;DHT22;1435;49.472;10.940;2023-03-14T06:55:24;10.80;99.90
2855;DHT22;1435;49.472;10.940;2023-03-14T07:00:28;10.90;99.90
2855;DHT22;1435;49.472;10.940;2023-03-14T07:05:29;10.90;99.90
2855;DHT22;1435;49.472;10.940;2023-03-14T07:10:31;10.90;99.90
2855;DHT22;1435;49.472;10.940;2023-03-14T07:15:34;10.90;99.90
2855;DHT22;1435;49.472;10.940;2023-03-14T07:20:36;10.90;99.90
2855;DHT22;1435;49.472;10.940;2023-03-14T07:25:37;10.90;99.90
2855;DHT22;1435;49.472;10.940;2023-03-14T07:30:41;11.00;99.90
2855;DHT22;1435;49.472;10.940;2023-03-14T07:35:42;11.00;99.90
2855;DHT22;1435;49.472;10.940;2023-03-14T07:40:44;11.00;99.90
2855;DHT22;1435;49.472;10.940;2023-03-14T07:45:47;11.00;99.90
2855;DHT22;1435;49.472;10.940;2023-03-14T07:50:49;11.00;99.90
2855;DHT22;1435;49.472;10.940;2023-03-14T07:55:51;11.00;99.90
2855;DHT22;1435;49.472;10.940;2023-03-14T08:00:54;11.10;99.90
2855;DHT22;1435;49.472;10.940;2023-03-14T08:05:56;11.00;99.90
2855;DHT22;1435;49.472;10.940;2023-03-14T08:16:05;11.10;99.90
2855;DHT22;1435;49.472;10.940;2023-03-14T08:21:07;11.20;99.90
2855;DHT22;1435;49.472;10.940;2023-03-14T08:26:08;11.20;99.90
2855;DHT22;1435;49.472;10.940;2023-03-14T08:31:13;11.20;99.90
2855;DHT22;1435;49.472;10.940;2023-03-14T08:36:14;11.30;99.90
2855;DHT22;1435;49.472;10.940;2023-03-14T08:41:16;11.40;99.90
2855;DHT22;1435;49.472;10.940;2023-03-14T08:46:19;11.30;99.90
2855;DHT22;1435;49.472;10.940;2023-03-14T08:51:21;11.30;99.90
2855;DHT22;1435;49.472;10.940;2023-03-14T08:56:23;11.40;99.90
2855;DHT22;1435;49.472;10.940;2023-03-14T09:01:26;11.50;99.90
2855;DHT22;1435;49.472;10.940;2023-03-14T09:06:28;11.60;99.90
2855;DHT22;1435;49.472;10.940;2023-03-14T09:11:29;11.70;99.90
2855;DHT22;1435;49.472;10.940;2023-03-14T09:16:33;11.80;99.90
2855;DHT22;1435;49.472;10.940;2023-03-14T09:21:34;11.90;99.90
2855;DHT22;1435;49.472;10.940;2023-03-14T09:26:38;12.00;99.90
2855;DHT22;1435;49.472;10.940;2023-03-14T09:31:42;12.10;99.90
2855;DHT22;1435;49.472;10.940;2023-03-14T09:36:43;12.20;99.90
2855;DHT22;1435;49.472;10.940;2023-03-14T09:41:47;12.20;99.90
2855;DHT22;1435;49.472;10.940;2023-03-14T09:46:53;12.30;99.90
2855;DHT22;1435;49.472;10.940;2023-03-14T09:51:58;12.30;99.90
2855;DHT22;1435;49.472;10.940;2023-03-14T09:57:02;12.30;99.90
2855;DHT22;1435;49.472;10.940;2023-03-14T10:02:15;12.30;99.90
2855;DHT22;1435;49.472;10.940;2023-03-14T10:07:19;12.20;99.90
2855;DHT22;1435;49.472;10.940;2023-03-14T10:12:30;12.20;99.90
2855;DHT22;1435;49.472;10.940;2023-03-14T10:17:40;12.20;99.90
2855;DHT22;1435;49.472;10.940;2023-03-14T10:22:42;12.30;99.90
2855;DHT22;1435;49.472;10.940;2023-03-14T10:27:44;12.40;99.90
2855;DHT22;1435;49.472;10.940;2023-03-14T10:32:47;12.40;99.90
2855;DHT22;1435;49.472;10.940;2023-03-14T10:37:51;12.50;99.90
2855;DHT22;1435;49.472;10.940;2023-03-14T10:42:54;12.50;99.90
2855;DHT22;1435;49.472;10.940;2023-03-14T10:47:59;12.50;99.90
2855;DHT22;1435;49.472;10.940;2023-03-14T10:53:08;12.40;99.90
2855;DHT22;1435;49.472;10.940;2023-03-14T10:58:22;12.50;99.90
2855;DHT22;1435;49.472;10.940;2023-03-14T11:03:26;12.50;99.90
2855;DHT22;1435;49.472;10.940;2023-03-14T11:08:31;12.60;99.90
2855;DHT22;1435;49.472;10.940;2023-03-14T11:13:40;12.60;99.90
2855;DHT22;1435;49.472;10.940;2023-03-14T11:19:03;12.70;99.90
2855;DHT22;1435;49.472;10.940;2023-03-14T11:29:39;12.50;99.90
2855;DHT22;1435;49.472;10.940;2023-03-14T11:34:50;12.60;99.90
2855;DHT22;1435;49.472;10.940;2023-03-14T11:39:59;12.70;99.90
2855;DHT22;1435;49.472;10.940;2023-03-14T11:45:03;12.90;99.90
2855;DHT22;1435;49.472;10.940;2023-03-14T11:50:14;13.00;99.90
2855;DHT22;1435;49.472;10.940;2023-03-14T11:55:22;13.10;99.90
2855;DHT22;1435;49.472;10.940;2023-03-14T12:00:26;13.20;99.90
2855;DHT22;1435;49.472;10.940;2023-03-14T12:05:47;13.40;99.90
2855;DHT22;1435;49.472;10.940;2023-03-14T12:10:54;13.70;99.90
2855;DHT22;1435;49.472;10.940;2023-03-14T12:16:00;13.90;99.90
2855;DHT22;1435;49.472;10.940;2023-03-14T12:21:06;14.10;99.90
2855;DHT22;1435;49.472;10.940;2023-03-14T12:26:15;14.00;99.90
2855;DHT22;1435;49.472;10.940;2023-03-14T12:31:37;13.90;99.90
2855;DHT22;1435;49.472;10.940;2023-03-14T12:36:57;13.90;99.90
2855;DHT22;1435;49.472;10.940;2023-03-14T12:42:02;13.90;99.90
2855;DHT22;1435;49.472;10.940;2023-03-14T12:52:53;13.90;99.90
2855;DHT22;1435;49.472;10.940;2023-03-14T12:58:02;13.50;99.90
2855;DHT22;1435;49.472;10.940;2023-03-14T13:03:20;13.60;99.90
2855;DHT22;1435;49.472;10.940;2023-03-14T13:08:37;13.50;99.90
2855;DHT22;1435;49.472;10.940;2023-03-14T13:13:45;13.20;99.90
2855;DHT22;1435;49.472;10.940;2023-03-14T13:18:49;12.90;99.90
2855;DHT22;1435;49.472;10.940;2023-03-14T13:23:58;12.80;99.90
2855;DHT22;1435;49.472;10.940;2023-03-14T13:29:00;12.70;99.90
2855;DHT22;1435;49.472;10.940;2023-03-14T13:34:04;12.60;99.90
2855;DHT22;1435;49.472;10.940;2023-03-14T13:39:13;12.50;99.90
2855;DHT22;1435;49.472;10.940;2023-03-14T13:44:17;12.40;99.90
2855;DHT22;1435;49.472;10.940;2023-03-14T13:49:22;12.30;99.90
2855;DHT22;1435;49.472;10.940;2023-03-14T13:54:27;12.40;99.90
2855;DHT22;1435;49.472;10.940;2023-03-14T13:59:30;12.20;99.90
2855;DHT22;1435;49.472;10.940;2023-03-14T14:04:35;12.10;99.90
2855;DHT22;1435;49.472;10.940;2023-03-14T14:09:40;11.90;99.90
2855;DHT22;1435;49.472;10.940;2023-03-14T14:14:46;11.70;99.90
2855;DHT22;1435;49.472;10.940;2023-03-14T14:19:50;11.50;99.90
2855;DHT22;1435;49.472;10.940;2023-03-14T14:24:54;11.40;99.90
2855;DHT22;1435;49.472;10.940;2023-03-14T14:29:58;11.10;99.90
2855;DHT22;1435;49.472;10.940;2023-03-14T14:35:02;10.90;99.90
2855;DHT22;1435;49.472;10.940;2023-03-14T14:40:13;10.60;99.90
2855;DHT22;1435;49.472;10.940;2023-03-14T14:45:18;10.40;99.90
2855;DHT22;1435;49.472;10.940;2023-03-14T14:50:27;10.20;99.90
2855;DHT22;1435;49.472;10.940;2023-03-14T14:55:33;10.00;99.90
2855;DHT22;1435;49.472;10.940;2023-03-14T15:00:39;9.70;99.90
2855;DHT22;1435;49.472;10.940;2023-03-14T15:05:42;9.70;99.90
2855;DHT22;1435;49.472;10.940;2023-03-14T15:10:45;9.60;99.90
2855;DHT22;1435;49.472;10.940;2023-03-14T15:15:49;9.40;99.90
2855;DHT22;1435;49.472;10.940;2023-03-14T15:20:56;9.40;99.90
2855;DHT22;1435;49.472;10.940;2023-03-14T15:25:59;9.20;99.90
2855;DHT22;1435;49.472;10.940;2023-03-14T15:31:01;9.20;99.90
2855;DHT22;1435;49.472;10.940;2023-03-14T15:36:03;9.10;99.90
2855;DHT22;1435;49.472;10.940;2023-03-14T15:41:09;8.90;99.90
2855;DHT22;1435;49.472;10.940;2023-03-14T15:46:12;9.00;99.90
2855;DHT22;1435;49.472;10.940;2023-03-14T15:51:14;8.90;99.90
2855;DHT22;1435;49.472;10.940;2023-03-14T15:56:19;8.90;99.90
2855;DHT22;1435;49.472;10.940;2023-03-14T16:01:24;8.90;99.90
2855;DHT22;1435;49.472;10.940;2023-03-14T16:06:26;8.80;99.90
2855;DHT22;1435;49.472;10.940;2023-03-14T16:11:29;8.80;99.90
2855;DHT22;1435;49.472;10.940;2023-03-14T16:16:31;8.80;99.90
2855;DHT22;1435;49.472;10.940;2023-03-14T16:21:33;8.80;99.90
2855;DHT22;1435;49.472;10.940;2023-03-14T16:26:36;8.70;99.90
2855;DHT22;1435;49.472;10.940;2023-03-14T16:31:37;8.50;99.90
2855;DHT22;1435;49.472;10.940;2023-03-14T16:36:42;8.40;99.90
2855;DHT22;1435;49.472;10.940;2023-03-14T16:41:45;8.30;99.90
2855;DHT22;1435;49.472;10.940;2023-03-14T16:46:47;8.50;99.90
2855;DHT22;1435;49.472;10.940;2023-03-14T16:51:49;8.50;99.90
2855;DHT22;1435;49.472;10.940;2023-03-14T16:56:52;8.50;99.90
2855;DHT22;1435;49.472;10.940;2023-03-14T17:01:54;8.50;99.90
2855;DHT22;1435;49.472;10.940;2023-03-14T17:06:56;8.50;99.90
2855;DHT22;1435;49.472;10.940;2023-03-14T17:11:59;8.60;99.90
2855;DHT22;1435;49.472;10.940;2023-03-14T17:17:01;8.60;99.90
2855;DHT22;1435;49.472;10.940;2023-03-14T17:22:03;8.60;99.90
2855;DHT22;1435;49.472;10.940;2023-03-14T17:27:06;8.60;99.90
2855;DHT22;1435;49.472;10.940;2023-03-14T17:32:08;8.60;99.90
2855;DHT22;1435;49.472;10.940;2023-03-14T17:37:10;8.50;99.90
2855;DHT22;1435;49.472;10.940;2023-03-14T17:42:13;8.60;99.90
2855;DHT22;1435;49.472;10.940;2023-03-14T17:47:15;8.60;99.90
2855;DHT22;1435;49.472;10.940;2023-03-14T17:52:17;8.70;99.90
2855;DHT22;1435;49.472;10.940;2023-03-14T17:57:20;8.80;99.90
2855;DHT22;1435;49.472;10.940;2023-03-14T18:02:23;8.80;99.90
2855;DHT22;1435;49.472;10.940;2023-03-14T18:07:25;8.90;99.90
2855;DHT22;1435;49.472;10.940;2023-03-14T18:12:28;8.80;99.90
2855;DHT22;1435;49.472;10.940;2023-03-14T18:17:30;8.80;99.90
2855;DHT22;1435;49.472;10.940;2023-03-14T18:22:32;8.70;99.90
2855;DHT22;1435;49.472;10.940;2023-03-14T18:39:38;8.80;99.90
2855;DHT22;1435;49.472;10.940;2023-03-14T18:44:41;8.80;99.90
2855;DHT22;1435;49.472;10.940;2023-03-14T18:49:43;8.70;99.90
2855;DHT22;1435;49.472;10.940;2023-03-14T18:54:46;8.70;99.90
2855;DHT22;1435;49.472;10.940;2023-03-14T18:59:47;8.70;99.90
2855;DHT22;1435;49.472;10.940;2023-03-14T19:04:49;8.60;99.90
2855;DHT22;1435;49.472;10.940;2023-03-14T19:09:53;8.60;99.90
2855;DHT22;1435;49.472;10.940;2023-03-14T19:14:55;8.40;99.90
2855;DHT22;1435;49.472;10.940;2023-03-14T19:19:57;8.30;99.90
2855;DHT22;1435;49.472;10.940;2023-03-14T19:25:00;8.30;99.90
2855;DHT22;1435;49.472;10.940;2023-03-14T19:30:04;8.30;99.90
2855;DHT22;1435;49.472;10.940;2023-03-14T19:35:06;8.40;99.90
2855;DHT22;1435;49.472;10.940;2023-03-14T19:40:10;8.40;99.90
2855;DHT22;1435;49.472;10.940;2023-03-14T19:45:12;8.40;99.90
2855;DHT22;1435;49.472;10.940;2023-03-14T19:50:14;8.40;99.90
2855;DHT22;1435;49.472;10.940;2023-03-14T19:55:17;8.40;99.90
2855;DHT22;1435;49.472;10.940;2023-03-14T20:00:22;8.40;99.90
2855;DHT22;1435;49.472;10.940;2023-03-14T20:05:24;8.40;99.90
2855;DHT22;1435;49.472;10.940;2023-03-14T20:10:27;8.50;99.90
2855;DHT22;1435;49.472;10.940;2023-03-14T20:15:29;8.40;99.90
2855;DHT22;1435;49.472;10.940;2023-03-14T20:20:30;8.40;99.90
2855;DHT22;1435;49.472;10.940;2023-03-14T20:25:33;8.50;99.90
2855;DHT22;1435;49.472;10.940;2023-03-14T20:30:37;8.40;99.90
2855;DHT22;1435;49.472;10.940;2023-03-14T20:35:38;8.40;99.90
2855;DHT22;1435;49.472;10.940;2023-03-14T20:40:44;8.40;99.90
2855;DHT22;1435;49.472;10.940;2023-03-14T20:45:50;8.40;99.90
2855;DHT22;1435;49.472;10.940;2023-03-14T20:50:53;8.10;99.90
2855;DHT22;1435;49.472;10.940;2023-03-14T20:55:57;8.00;99.90
2855;DHT22;1435;49.472;10.940;2023-03-14T21:00:59;7.70;99.90
2855;DHT22;1435;49.472;10.940;2023-03-14T21:06:03;7.60;99.90
2855;DHT22;1435;49.472;10.940;2023-03-14T21:11:07;7.50;99.90
2855;DHT22;1435;49.472;10.940;2023-03-14T21:16:09;7.40;99.90
2855;DHT22;1435;49.472;10.940;2023-03-14T21:21:11;7.30;99.90
2855;DHT22;1435;49.472;10.940;2023-03-14T21:26:15;7.10;99.90
2855;DHT22;1435;49.472;10.940;2023-03-14T21:31:16;7.00;99.90
2855;DHT22;1435;49.472;10.940;2023-03-14T21:36:18;7.00;99.90
2855;DHT22;1435;49.472;10.940;2023-03-14T21:41:22;6.90;99.90
2855;DHT22;1435;49.472;10.940;2023-03-14T21:46:24;6.60;99.90
2855;DHT22;1435;49.472;10.940;2023-03-14T21:51:26;6.50;99.90
2855;DHT22;1435;49.472;10.940;2023-03-14T21:56:31;6.50;99.90
2855;DHT22;1435;49.472;10.940;2023-03-14T22:01:33;6.70;99.90
2855;DHT22;1435;49.472;10.940;2023-03-14T22:06:35;6.70;99.90
2855;DHT22;1435;49.472;10.940;2023-03-14T22:11:38;6.80;99.90
2855;DHT22;1435;49.472;10.940;2023-03-14T22:16:40;6.90;99.90
2855;DHT22;1435;49.472;10.940;2023-03-14T22:21:42;6.80;99.90
2855;DHT22;1435;49.472;10.940;2023-03-14T22:26:45;6.80;99.90
2855;DHT22;1435;49.472;10.940;2023-03-14T22:31:47;6.80;99.90
2855;DHT22;1435;49.472;10.940;2023-03-14T22:36:48;6.80;99.90
2855;DHT22;1435;49.472;10.940;2023-03-14T22:41:51;6.80;99.90
2855;DHT22;1435;49.472;10.940;2023-03-14T22:46:53;6.80;99.90
2855;DHT22;1435;49.472;10.940;2023-03-14T22:51:55;6.70;99.90
2855;DHT22;1435;49.472;10.940;2023-03-14T22:56:58;6.60;99.90
2855;DHT22;1435;49.472;10.940;2023-03-14T23:02:00;6.50;99.90
2855;DHT22;1435;49.472;10.940;2023-03-14T23:07:02;6.50;99.90
2855;DHT22;1435;49.472;10.940;2023-03-14T23:12:05;6.50;99.90
2855;DHT22;1435;49.472;10.940;2023-03-14T23:17:07;6.40;99.90
2855;DHT22;1435;49.472;10.940;2023-03-14T23:22:09;6.40;99.90
2855;DHT22;1435;49.472;10.940;2023-03-14T23:27:12;6.50;99.90
2855;DHT22;1435;49.472;10.940;2023-03-14T23:32:13;6.50;99.90
2855;DHT22;1435;49.472;10.940;2023-03-14T23:37:15;6.40;99.90
2855;DHT22;1435;49.472;10.940;2023-03-14T23:42:19;6.30;99.90
2855;DHT22;1435;49.472;10.940;2023-03-14T23:47:21;6.20;99.90
2855;DHT22;1435;49.472;10.940;2023-03-14T23:52:23;6.20;99.90
2855;DHT22;1435;49.472;10.940;2023-03-14T23:57:26;6.20;99.90
